Time,TemperatureF,DewpointF,PressureIn,WindDirection,WindDirectionDegrees,WindSpeedMPH,WindSpeedGustMPH,Humidity,HourlyPrecipIn,Conditions,Clouds,dailyrainin,SoftwareType,DateUTC
2013-12-05 00:02:00,60.4,57.2,29.66,SSW,203,0.0,2.6,89,0.00,,,0.04,WUHU216HW,2013-12-05 05:02:00,
2013-12-05 00:07:00,60.4,57.2,29.67,SSE,158,5.8,5.8,89,0.00,,,0.00,WUHU216HW,2013-12-05 05:07:00,
2013-12-05 00:12:00,60.4,57.2,29.67,NNE,23,0.0,5.8,89,0.00,,,0.00,WUHU216HW,2013-12-05 05:12:00,
2013-12-05 00:17:00,60.4,57.2,29.67,WSW,248,0.0,5.8,89,0.00,,,0.00,WUHU216HW,2013-12-05 05:17:00,
2013-12-05 00:22:00,60.4,57.2,29.68,SSW,203,0.0,4.4,89,0.00,,,0.00,WUHU216HW,2013-12-05 05:22:00,
2013-12-05 00:27:00,60.6,57.4,29.67,WSW,248,0.0,4.4,89,0.00,,,0.00,WUHU216HW,2013-12-05 05:27:00,
2013-12-05 00:32:00,60.6,57.0,29.67,SW,225,0.0,6.0,88,0.00,,,0.00,WUHU216HW,2013-12-05 05:32:00,
2013-12-05 00:37:00,60.6,57.0,29.67,SSW,203,0.0,6.0,88,0.00,,,0.00,WUHU216HW,2013-12-05 05:37:00,
2013-12-05 00:42:00,60.8,57.2,29.67,West,270,5.8,5.8,88,0.00,,,0.00,WUHU216HW,2013-12-05 05:42:00,
2013-12-05 00:47:00,61.1,57.6,29.67,NW,315,0.0,5.8,88,0.00,,,0.00,WUHU216HW,2013-12-05 05:47:00,
2013-12-05 00:52:00,61.1,57.6,29.67,SSW,203,0.0,4.2,88,0.00,,,0.00,WUHU216HW,2013-12-05 05:52:00,
2013-12-05 00:57:00,61.3,57.7,29.67,NW,315,2.6,2.6,88,0.00,,,0.00,WUHU216HW,2013-12-05 05:57:00,
2013-12-05 01:02:00,61.3,57.7,29.67,West,270,0.0,2.6,88,0.00,,,0.00,WUHU216HW,2013-12-05 06:02:00,
2013-12-05 01:07:00,61.3,57.7,29.67,West,270,0.0,1.7,88,0.00,,,0.00,WUHU216HW,2013-12-05 06:07:00,
2013-12-05 01:12:00,61.5,57.9,29.67,WNW,293,0.0,0.0,88,0.00,,,0.00,WUHU216HW,2013-12-05 06:12:00,
2013-12-05 01:17:00,61.3,57.7,29.67,SE,135,0.0,4.6,88,0.00,,,0.00,WUHU216HW,2013-12-05 06:17:00,
2013-12-05 01:22:00,61.3,57.7,29.67,South,180,0.0,4.6,88,0.00,,,0.00,WUHU216HW,2013-12-05 06:22:00,
2013-12-05 01:27:00,61.3,57.7,29.67,WNW,293,0.0,0.0,88,0.00,,,0.00,WUHU216HW,2013-12-05 06:27:00,
2013-12-05 01:32:00,61.3,57.7,29.67,WSW,248,0.0,0.0,88,0.00,,,0.00,WUHU216HW,2013-12-05 06:32:00,
2013-12-05 01:37:00,61.3,57.7,29.67,SE,135,3.3,3.3,88,0.00,,,0.00,WUHU216HW,2013-12-05 06:37:00,
2013-12-05 01:42:00,61.3,57.7,29.67,WSW,248,0.0,3.3,88,0.00,,,0.00,WUHU216HW,2013-12-05 06:42:00,
2013-12-05 01:47:00,61.1,57.6,29.68,South,180,3.5,5.8,88,0.00,,,0.00,WUHU216HW,2013-12-05 06:47:00,
2013-12-05 01:52:00,61.3,57.7,29.68,SE,135,0.0,5.8,88,0.00,,,0.00,WUHU216HW,2013-12-05 06:52:00,
2013-12-05 01:57:00,61.1,57.6,29.68,South,180,4.6,5.3,88,0.00,,,0.00,WUHU216HW,2013-12-05 06:57:00,
2013-12-05 02:02:00,61.3,57.4,29.68,SSW,203,0.0,5.3,87,0.00,,,0.00,WUHU216HW,2013-12-05 07:02:00,
2013-12-05 02:07:00,61.3,57.4,29.68,SW,225,0.0,0.0,87,0.00,,,0.00,WUHU216HW,2013-12-05 07:07:00,
2013-12-05 02:12:00,61.5,57.6,29.68,SW,225,0.8,7.6,87,0.00,,,0.00,WUHU216HW,2013-12-05 07:12:00,
2013-12-05 02:17:00,61.7,57.8,29.68,West,270,3.1,8.5,87,0.00,,,0.00,WUHU216HW,2013-12-05 07:17:00,
2013-12-05 02:22:00,61.8,57.9,29.68,WSW,248,5.5,8.5,87,0.00,,,0.00,WUHU216HW,2013-12-05 07:22:00,
2013-12-05 02:27:00,62.0,57.8,29.68,WNW,293,5.3,5.5,86,0.00,,,0.00,WUHU216HW,2013-12-05 07:27:00,
2013-12-05 02:32:00,62.0,57.8,29.69,South,180,8.5,10.9,86,0.00,,,0.00,WUHU216HW,2013-12-05 07:32:00,
2013-12-05 02:37:00,62.0,57.8,29.69,SE,135,0.0,10.9,86,0.00,,,0.00,WUHU216HW,2013-12-05 07:37:00,
2013-12-05 02:42:00,61.8,57.6,29.70,West,270,2.0,2.0,86,0.00,,,0.00,WUHU216HW,2013-12-05 07:42:00,
2013-12-05 02:47:00,61.8,57.6,29.70,West,270,0.2,3.1,86,0.00,,,0.00,WUHU216HW,2013-12-05 07:47:00,
2013-12-05 02:52:00,61.8,57.3,29.70,WSW,248,5.1,6.2,85,0.00,,,0.00,WUHU216HW,2013-12-05 07:52:00,
2013-12-05 02:57:00,61.5,56.9,29.70,NW,315,6.4,6.4,85,0.00,,,0.00,WUHU216HW,2013-12-05 07:57:00,
2013-12-05 03:02:00,61.1,56.3,29.71,West,270,7.1,7.1,84,0.00,,,0.00,WUHU216HW,2013-12-05 08:02:00,
2013-12-05 03:07:00,60.4,55.6,29.72,West,270,7.1,7.1,84,0.00,,,0.00,WUHU216HW,2013-12-05 08:07:00,
2013-12-05 03:12:00,59.5,54.7,29.72,West,270,0.0,7.1,84,0.00,,,0.00,WUHU216HW,2013-12-05 08:12:00,
2013-12-05 03:17:00,58.8,53.6,29.71,WNW,293,4.6,4.6,83,0.00,,,0.00,WUHU216HW,2013-12-05 08:17:00,
2013-12-05 03:22:00,58.8,53.6,29.72,WNW,293,0.0,6.9,83,0.00,,,0.00,WUHU216HW,2013-12-05 08:22:00,
2013-12-05 03:27:00,58.1,52.9,29.72,West,270,0.0,6.9,83,0.00,,,0.00,WUHU216HW,2013-12-05 08:27:00,
2013-12-05 03:32:00,57.7,52.5,29.72,NW,315,0.0,0.0,83,0.00,,,0.00,WUHU216HW,2013-12-05 08:32:00,
2013-12-05 03:37:00,57.3,52.2,29.72,West,270,0.0,0.0,83,0.00,,,0.00,WUHU216HW,2013-12-05 08:37:00,
2013-12-05 03:42:00,57.0,51.8,29.72,WNW,293,0.0,6.0,83,0.00,,,0.00,WUHU216HW,2013-12-05 08:42:00,
2013-12-05 03:47:00,56.8,51.6,29.72,NNW,338,4.4,6.0,83,0.00,,,0.00,WUHU216HW,2013-12-05 08:47:00,
2013-12-05 03:52:00,56.4,51.6,29.72,NNW,338,0.0,4.4,84,0.00,,,0.00,WUHU216HW,2013-12-05 08:52:00,
2013-12-05 03:57:00,55.9,50.7,29.72,NW,315,5.8,5.8,83,0.00,,,0.00,WUHU216HW,2013-12-05 08:57:00,
2013-12-05 04:02:00,55.7,50.6,29.73,WNW,293,0.0,5.8,83,0.00,,,0.00,WUHU216HW,2013-12-05 09:02:00,
2013-12-05 04:07:00,55.4,50.2,29.73,West,270,0.0,5.8,83,0.00,,,0.00,WUHU216HW,2013-12-05 09:07:00,
2013-12-05 04:12:00,55.0,49.9,29.73,NW,315,0.0,7.6,83,0.00,,,0.00,WUHU216HW,2013-12-05 09:12:00,
2013-12-05 04:17:00,54.6,49.5,29.74,SSE,158,0.0,7.6,83,0.00,,,0.00,WUHU216HW,2013-12-05 09:17:00,
2013-12-05 04:22:00,54.6,49.5,29.73,WNW,293,6.2,6.2,83,0.00,,,0.00,WUHU216HW,2013-12-05 09:22:00,
2013-12-05 04:27:00,54.3,49.2,29.73,NW,315,0.0,6.2,83,0.00,,,0.00,WUHU216HW,2013-12-05 09:27:00,
2013-12-05 04:32:00,54.1,48.7,29.74,NW,315,0.0,0.0,82,0.00,,,0.00,WUHU216HW,2013-12-05 09:32:00,
2013-12-05 04:37:00,53.9,48.5,29.74,SSW,203,0.0,0.0,82,0.00,,,0.00,WUHU216HW,2013-12-05 09:37:00,
2013-12-05 04:42:00,53.7,48.4,29.75,SW,225,0.0,4.2,82,0.00,,,0.00,WUHU216HW,2013-12-05 09:42:00,
2013-12-05 04:47:00,53.4,48.0,29.75,NW,315,0.8,4.2,82,0.00,,,0.00,WUHU216HW,2013-12-05 09:47:00,
2013-12-05 04:52:00,53.4,48.0,29.75,NNW,338,0.0,0.8,82,0.00,,,0.00,WUHU216HW,2013-12-05 09:52:00,
2013-12-05 04:57:00,53.2,47.9,29.74,West,270,7.8,7.8,82,0.00,,,0.00,WUHU216HW,2013-12-05 09:57:00,
2013-12-05 05:02:00,52.8,47.5,29.74,NW,315,4.9,7.8,82,0.00,,,0.00,WUHU216HW,2013-12-05 10:02:00,
2013-12-05 05:07:00,52.7,47.3,29.74,NW,315,6.7,7.8,82,0.00,,,0.00,WUHU216HW,2013-12-05 10:07:00,
2013-12-05 05:12:00,52.5,47.1,29.74,West,270,0.0,6.7,82,0.00,,,0.00,WUHU216HW,2013-12-05 10:12:00,
2013-12-05 05:17:00,52.3,47.3,29.74,WSW,248,0.0,4.2,83,0.00,,,0.00,WUHU216HW,2013-12-05 10:17:00,
2013-12-05 05:22:00,52.3,47.3,29.74,WNW,293,0.0,0.0,83,0.00,,,0.00,WUHU216HW,2013-12-05 10:22:00,
2013-12-05 05:27:00,52.1,47.1,29.74,West,270,0.0,5.5,83,0.00,,,0.00,WUHU216HW,2013-12-05 10:27:00,
2013-12-05 05:32:00,51.9,46.9,29.74,West,270,0.0,5.5,83,0.00,,,0.00,WUHU216HW,2013-12-05 10:32:00,
2013-12-05 05:37:00,51.9,46.9,29.75,WSW,248,0.8,0.8,83,0.00,,,0.00,WUHU216HW,2013-12-05 10:37:00,
2013-12-05 05:42:00,51.8,46.7,29.75,WNW,293,0.0,0.8,83,0.00,,,0.00,WUHU216HW,2013-12-05 10:42:00,
2013-12-05 05:47:00,51.6,46.5,29.77,SW,225,6.4,6.4,83,0.00,,,0.00,WUHU216HW,2013-12-05 10:47:00,
2013-12-05 05:52:00,51.6,46.5,29.79,NNW,338,6.0,6.4,83,0.00,,,0.00,WUHU216HW,2013-12-05 10:52:00,
2013-12-05 05:57:00,51.0,45.7,29.79,WNW,293,4.9,6.0,82,0.00,,,0.00,WUHU216HW,2013-12-05 10:57:00,
2013-12-05 06:02:00,50.9,45.5,29.79,NW,315,8.9,8.9,82,0.00,,,0.00,WUHU216HW,2013-12-05 11:02:00,
2013-12-05 06:07:00,50.7,45.3,29.79,NNW,338,6.4,8.9,82,0.00,,,0.00,WUHU216HW,2013-12-05 11:07:00,
2013-12-05 06:12:00,50.1,44.8,29.80,WNW,293,9.8,9.8,82,0.00,,,0.00,WUHU216HW,2013-12-05 11:12:00,
2013-12-05 06:17:00,49.8,44.1,29.81,SW,225,0.0,9.8,81,0.00,,,0.00,WUHU216HW,2013-12-05 11:17:00,
2013-12-05 06:22:00,49.6,43.7,29.81,West,270,0.6,9.8,80,0.00,,,0.00,WUHU216HW,2013-12-05 11:22:00,
2013-12-05 06:27:00,49.1,43.1,29.82,West,270,0.6,6.4,80,0.00,,,0.00,WUHU216HW,2013-12-05 11:27:00,
2013-12-05 06:32:00,48.7,42.4,29.82,NW,315,1.7,7.1,79,0.00,,,0.00,WUHU216HW,2013-12-05 11:32:00,
2013-12-05 06:37:00,48.3,41.7,29.82,WNW,293,4.2,7.3,78,0.00,,,0.00,WUHU216HW,2013-12-05 11:37:00,
2013-12-05 06:42:00,48.0,41.7,29.83,West,270,6.2,7.3,79,0.00,,,0.00,WUHU216HW,2013-12-05 11:42:00,
2013-12-05 06:47:00,48.0,41.7,29.83,WNW,293,19.2,19.2,79,0.00,,,0.00,WUHU216HW,2013-12-05 11:47:00,
2013-12-05 06:52:00,47.6,41.0,29.83,NW,315,6.4,19.2,78,0.00,,,0.00,WUHU216HW,2013-12-05 11:52:00,
2013-12-05 06:57:00,47.3,40.7,29.83,WNW,293,0.0,9.1,78,0.00,,,0.00,WUHU216HW,2013-12-05 11:57:00,
2013-12-05 07:02:00,47.1,39.9,29.83,West,270,4.4,9.1,76,0.00,,,0.00,WUHU216HW,2013-12-05 12:02:00,
2013-12-05 07:07:00,46.5,39.4,29.84,NW,315,5.3,16.1,76,0.00,,,0.00,WUHU216HW,2013-12-05 12:07:00,
2013-12-05 07:12:00,46.2,39.0,29.84,WSW,248,0.0,16.1,76,0.00,,,0.00,WUHU216HW,2013-12-05 12:12:00,
2013-12-05 07:17:00,46.0,38.9,29.84,West,270,1.1,5.3,76,0.00,,,0.00,WUHU216HW,2013-12-05 12:17:00,
2013-12-05 07:22:00,45.6,38.8,29.84,NW,315,4.0,7.6,77,0.00,,,0.00,WUHU216HW,2013-12-05 12:22:00,
2013-12-05 07:27:00,45.5,38.7,29.84,West,270,5.5,13.6,77,0.00,,,0.00,WUHU216HW,2013-12-05 12:27:00,
2013-12-05 07:32:00,45.3,38.1,29.85,SE,135,0.0,15.2,76,0.00,,,0.00,WUHU216HW,2013-12-05 12:32:00,
2013-12-05 07:37:00,45.1,38.3,29.85,WNW,293,0.0,15.2,77,0.00,,,0.00,WUHU216HW,2013-12-05 12:37:00,
2013-12-05 07:42:00,44.9,38.1,29.85,NW,315,5.8,5.8,77,0.00,,,0.00,WUHU216HW,2013-12-05 12:42:00,
2013-12-05 07:47:00,44.9,38.1,29.85,West,270,5.5,5.8,77,0.00,,,0.00,WUHU216HW,2013-12-05 12:47:00,
2013-12-05 07:52:00,44.7,37.9,29.85,West,270,1.3,5.8,77,0.00,,,0.00,WUHU216HW,2013-12-05 12:52:00,
2013-12-05 07:57:00,44.6,37.8,29.85,NW,315,5.1,10.7,77,0.00,,,0.00,WUHU216HW,2013-12-05 12:57:00,
2013-12-05 08:02:00,44.6,37.8,29.85,SW,225,0.0,10.7,77,0.00,,,0.00,WUHU216HW,2013-12-05 13:02:00,
2013-12-05 08:07:00,44.4,37.6,29.85,NW,315,4.9,7.6,77,0.00,,,0.00,WUHU216HW,2013-12-05 13:07:00,
2013-12-05 08:12:00,44.2,37.4,29.86,WSW,248,10.9,10.9,77,0.00,,,0.00,WUHU216HW,2013-12-05 13:12:00,
2013-12-05 08:17:00,43.8,37.1,29.86,WNW,293,6.4,13.4,77,0.00,,,0.00,WUHU216HW,2013-12-05 13:17:00,
2013-12-05 08:22:00,43.8,36.9,29.87,WNW,293,2.9,13.4,77,0.00,,,0.00,WUHU216HW,2013-12-05 13:22:00,
2013-12-05 08:27:00,43.7,36.9,29.86,NW,315,5.1,5.5,77,0.00,,,0.00,WUHU216HW,2013-12-05 13:27:00,
2013-12-05 08:32:00,43.5,36.7,29.85,WSW,248,0.0,5.5,77,0.00,,,0.00,WUHU216HW,2013-12-05 13:32:00,
2013-12-05 08:37:00,43.5,37.0,29.86,West,270,3.5,5.1,78,0.00,,,0.00,WUHU216HW,2013-12-05 13:37:00,
2013-12-05 08:42:00,43.3,36.9,29.85,WNW,293,7.1,7.1,78,0.00,,,0.00,WUHU216HW,2013-12-05 13:42:00,
2013-12-05 08:47:00,43.1,36.7,29.87,West,270,7.3,10.7,78,0.00,,,0.00,WUHU216HW,2013-12-05 13:47:00,
2013-12-05 08:52:00,43.1,36.5,29.87,West,270,3.1,10.7,78,0.00,,,0.00,WUHU216HW,2013-12-05 13:52:00,
2013-12-05 08:57:00,42.9,36.5,29.87,West,270,6.9,6.9,78,0.00,,,0.00,WUHU216HW,2013-12-05 13:57:00,
2013-12-05 09:03:00,42.9,36.5,29.87,WNW,293,4.6,6.9,78,0.00,,,0.00,WUHU216HW,2013-12-05 14:03:00,
2013-12-05 09:08:00,42.9,36.5,29.88,West,270,0.0,10.2,78,0.00,,,0.00,WUHU216HW,2013-12-05 14:08:00,
2013-12-05 09:13:00,42.6,36.2,29.88,NW,315,2.0,10.2,78,0.00,,,0.00,WUHU216HW,2013-12-05 14:13:00,
2013-12-05 09:18:00,42.6,36.2,29.89,WSW,248,7.6,14.9,78,0.00,,,0.00,WUHU216HW,2013-12-05 14:18:00,
2013-12-05 09:23:00,42.6,36.2,29.90,WNW,293,10.9,14.9,78,0.00,,,0.00,WUHU216HW,2013-12-05 14:23:00,
2013-12-05 09:28:00,42.4,36.0,29.90,North,0,4.9,10.9,78,0.00,,,0.00,WUHU216HW,2013-12-05 14:28:00,
2013-12-05 09:33:00,42.4,36.0,29.90,West,270,5.3,10.9,78,0.00,,,0.00,WUHU216HW,2013-12-05 14:33:00,
2013-12-05 09:38:00,42.4,36.0,29.91,NW,315,0.8,5.8,78,0.00,,,0.00,WUHU216HW,2013-12-05 14:38:00,
2013-12-05 09:43:00,42.0,35.6,29.92,South,180,0.0,5.8,78,0.00,,,0.00,WUHU216HW,2013-12-05 14:43:00,
2013-12-05 09:48:00,42.0,35.6,29.93,West,270,0.0,10.7,78,0.00,,,0.00,WUHU216HW,2013-12-05 14:48:00,
2013-12-05 09:53:00,42.0,35.4,29.93,NW,315,5.5,10.7,78,0.00,,,0.00,WUHU216HW,2013-12-05 14:53:00,
2013-12-05 09:58:00,41.5,35.1,29.93,NW,315,0.0,10.0,78,0.00,,,0.00,WUHU216HW,2013-12-05 14:58:00,
2013-12-05 10:03:00,41.5,35.1,29.93,NW,315,8.5,8.5,78,0.00,,,0.00,WUHU216HW,2013-12-05 15:03:00,
2013-12-05 10:08:00,41.1,34.5,29.93,NW,315,16.5,16.5,78,0.00,,,0.00,WUHU216HW,2013-12-05 15:08:00,
2013-12-05 10:13:00,40.8,34.0,29.93,WNW,293,0.0,16.5,77,0.00,,,0.00,WUHU216HW,2013-12-05 15:13:00,
2013-12-05 10:18:00,40.4,34.0,29.93,NNW,338,0.0,16.5,78,0.00,,,0.00,WUHU216HW,2013-12-05 15:18:00,
2013-12-05 10:23:00,40.1,33.7,29.94,NW,315,8.5,17.2,78,0.00,,,0.00,WUHU216HW,2013-12-05 15:23:00,
2013-12-05 10:28:00,39.9,33.5,29.94,WSW,248,0.0,17.2,78,0.00,,,0.00,WUHU216HW,2013-12-05 15:28:00,
2013-12-05 10:33:00,39.9,33.5,29.94,West,270,1.7,11.1,78,0.00,,,0.00,WUHU216HW,2013-12-05 15:33:00,
2013-12-05 10:38:00,39.7,33.4,29.94,NNW,338,6.4,8.2,78,0.00,,,0.00,WUHU216HW,2013-12-05 15:38:00,
2013-12-05 10:43:00,39.7,33.4,29.94,NNW,338,7.6,8.2,78,0.00,,,0.00,WUHU216HW,2013-12-05 15:43:00,
2013-12-05 10:48:00,39.7,33.0,29.95,WNW,293,0.0,7.6,77,0.00,,,0.00,WUHU216HW,2013-12-05 15:48:00,
2013-12-05 10:53:00,39.5,32.9,29.94,West,270,0.0,11.4,77,0.00,,,0.00,WUHU216HW,2013-12-05 15:53:00,
2013-12-05 10:58:00,39.3,32.4,29.95,West,270,0.0,11.4,76,0.00,,,0.00,WUHU216HW,2013-12-05 15:58:00,
2013-12-05 11:03:00,39.3,32.4,29.95,West,270,0.0,7.3,76,0.00,,,0.00,WUHU216HW,2013-12-05 16:03:00,
2013-12-05 11:08:00,39.0,32.0,29.95,West,270,1.3,7.3,76,0.00,,,0.00,WUHU216HW,2013-12-05 16:08:00,
2013-12-05 11:13:00,39.0,32.0,29.95,West,270,8.0,8.0,76,0.00,,,0.00,WUHU216HW,2013-12-05 16:13:00,
2013-12-05 11:18:00,39.0,32.0,29.96,WSW,248,8.0,9.6,76,0.00,,,0.00,WUHU216HW,2013-12-05 16:18:00,
2013-12-05 11:23:00,39.0,32.0,29.96,WNW,293,6.0,9.6,76,0.00,,,0.00,WUHU216HW,2013-12-05 16:23:00,
2013-12-05 11:28:00,39.0,32.0,29.96,WNW,293,15.6,15.6,76,0.00,,,0.00,WUHU216HW,2013-12-05 16:28:00,
2013-12-05 11:33:00,39.0,31.7,29.96,WNW,293,0.0,15.6,75,0.00,,,0.00,WUHU216HW,2013-12-05 16:33:00,
2013-12-05 11:38:00,38.8,31.5,29.97,WSW,248,9.8,9.8,75,0.00,,,0.00,WUHU216HW,2013-12-05 16:38:00,
2013-12-05 11:43:00,39.0,31.7,29.97,WNW,293,5.8,9.8,75,0.00,,,0.00,WUHU216HW,2013-12-05 16:43:00,
2013-12-05 11:48:00,39.0,31.7,29.98,WSW,248,5.8,5.8,75,0.00,,,0.00,WUHU216HW,2013-12-05 16:48:00,
2013-12-05 11:53:00,38.8,31.5,29.97,WNW,293,0.0,5.8,75,0.00,,,0.00,WUHU216HW,2013-12-05 16:53:00,
2013-12-05 11:58:00,38.6,31.3,29.97,NW,315,5.5,9.3,75,0.00,,,0.00,WUHU216HW,2013-12-05 16:58:00,
2013-12-05 12:03:00,38.3,31.3,29.96,NW,315,4.4,9.3,76,0.00,,,0.00,WUHU216HW,2013-12-05 17:03:00,
2013-12-05 12:08:00,37.9,31.3,29.96,NW,315,7.8,8.0,77,0.00,,,0.00,WUHU216HW,2013-12-05 17:08:00,
2013-12-05 12:13:00,37.9,31.3,29.97,SW,225,0.0,8.0,77,0.00,,,0.00,WUHU216HW,2013-12-05 17:13:00,
2013-12-05 12:18:00,37.7,31.5,29.97,NW,315,6.2,6.2,78,0.00,,,0.00,WUHU216HW,2013-12-05 17:18:00,
2013-12-05 12:23:00,37.5,31.3,29.96,West,270,0.0,8.7,78,0.00,,,0.00,WUHU216HW,2013-12-05 17:23:00,
2013-12-05 12:28:00,37.5,31.3,29.95,NNW,338,5.3,8.7,78,0.00,,,0.00,WUHU216HW,2013-12-05 17:28:00,
2013-12-05 12:33:00,37.5,31.3,29.95,West,270,6.2,6.2,78,0.00,,,0.00,WUHU216HW,2013-12-05 17:33:00,
2013-12-05 12:38:00,37.2,30.9,29.95,NNW,338,0.0,6.2,78,0.00,,,0.00,WUHU216HW,2013-12-05 17:38:00,
2013-12-05 12:43:00,37.2,30.9,29.97,West,270,0.0,6.2,78,0.00,,,0.00,WUHU216HW,2013-12-05 17:43:00,
2013-12-05 12:48:00,37.0,30.8,29.96,West,270,0.0,1.3,78,0.00,,,0.00,WUHU216HW,2013-12-05 17:48:00,
2013-12-05 12:53:00,37.2,30.9,29.96,West,270,0.0,1.3,78,0.00,,,0.00,WUHU216HW,2013-12-05 17:53:00,
2013-12-05 12:58:00,37.0,30.8,29.96,WNW,293,0.0,1.3,78,0.00,,,0.00,WUHU216HW,2013-12-05 17:58:00,
2013-12-05 13:03:00,37.0,30.8,29.97,NW,315,0.0,6.2,78,0.00,,,0.00,WUHU216HW,2013-12-05 18:03:00,
2013-12-05 13:08:00,36.8,30.6,29.96,NW,315,9.1,9.1,78,0.00,,,0.00,WUHU216HW,2013-12-05 18:08:00,
2013-12-05 13:13:00,36.8,30.6,29.96,WSW,248,6.2,9.1,78,0.00,,,0.00,WUHU216HW,2013-12-05 18:13:00,
2013-12-05 13:18:00,36.6,30.4,29.95,North,0,4.2,6.2,78,0.00,,,0.00,WUHU216HW,2013-12-05 18:18:00,
2013-12-05 13:23:00,36.6,30.4,29.95,NW,315,0.0,4.2,78,0.00,,,0.00,WUHU216HW,2013-12-05 18:23:00,
2013-12-05 13:28:00,36.6,30.4,29.95,NW,315,0.0,6.9,78,0.00,,,0.00,WUHU216HW,2013-12-05 18:28:00,
2013-12-05 13:33:00,36.8,30.6,29.93,NNE,23,6.9,6.9,78,0.00,,,0.00,WUHU216HW,2013-12-05 18:33:00,
2013-12-05 13:38:00,37.0,30.8,29.94,SSW,203,0.0,6.9,78,0.00,,,0.00,WUHU216HW,2013-12-05 18:38:00,
2013-12-05 13:43:00,37.0,30.8,29.94,WNW,293,12.9,12.9,78,0.00,,,0.00,WUHU216HW,2013-12-05 18:43:00,
2013-12-05 13:48:00,37.0,30.8,29.95,NNW,338,10.2,12.9,78,0.00,,,0.00,WUHU216HW,2013-12-05 18:48:00,
2013-12-05 13:53:00,37.0,30.8,29.95,NW,315,6.7,10.2,78,0.00,,,0.00,WUHU216HW,2013-12-05 18:53:00,
2013-12-05 13:58:00,37.0,30.8,29.95,NW,315,8.0,10.2,78,0.00,,,0.00,WUHU216HW,2013-12-05 18:58:00,
2013-12-05 14:03:00,36.8,30.6,29.95,NW,315,2.9,8.0,78,0.00,,,0.00,WUHU216HW,2013-12-05 19:03:00,
2013-12-05 14:08:00,36.6,30.4,29.95,NW,315,2.0,5.5,78,0.00,,,0.00,WUHU216HW,2013-12-05 19:08:00,
2013-12-05 14:13:00,36.6,30.7,29.96,NNW,338,5.1,5.1,79,0.00,,,0.00,WUHU216HW,2013-12-05 19:13:00,
2013-12-05 14:18:00,36.6,30.4,29.96,WNW,293,0.0,6.9,78,0.00,,,0.00,WUHU216HW,2013-12-05 19:18:00,
2013-12-05 14:23:00,36.6,30.4,29.96,NW,315,2.0,6.9,78,0.00,,,0.00,WUHU216HW,2013-12-05 19:23:00,
2013-12-05 14:28:00,36.6,30.4,29.96,WNW,293,0.0,5.5,78,0.00,,,0.00,WUHU216HW,2013-12-05 19:28:00,
2013-12-05 14:33:00,36.3,30.0,29.95,NNE,23,4.6,10.0,78,0.00,,,0.00,WUHU216HW,2013-12-05 19:33:00,
2013-12-05 14:38:00,36.1,29.9,29.95,West,270,1.3,10.0,78,0.00,,,0.00,WUHU216HW,2013-12-05 19:38:00,
2013-12-05 14:43:00,35.9,29.7,29.96,WNW,293,12.9,12.9,78,0.00,,,0.00,WUHU216HW,2013-12-05 19:43:00,
2013-12-05 14:48:00,35.7,29.8,30.00,NW,315,1.5,12.9,79,0.00,,,0.00,WUHU216HW,2013-12-05 19:48:00,
2013-12-05 14:53:00,35.4,29.5,30.00,NNW,338,10.2,10.2,79,0.00,,,0.00,WUHU216HW,2013-12-05 19:53:00,
2013-12-05 14:58:00,35.2,29.6,30.00,West,270,0.0,10.2,80,0.00,,,0.00,WUHU216HW,2013-12-05 19:58:00,
2013-12-05 15:03:00,34.8,29.3,30.00,NW,315,10.5,10.5,80,0.00,,,0.00,WUHU216HW,2013-12-05 20:03:00,
2013-12-05 15:08:00,34.7,29.1,29.98,North,0,0.0,10.5,80,0.02,,,0.02,WUHU216HW,2013-12-05 20:08:00,
2013-12-05 15:13:00,34.3,29.0,30.00,SSW,203,4.9,10.5,81,0.02,,,0.02,WUHU216HW,2013-12-05 20:13:00,
2013-12-05 15:18:00,34.3,29.0,30.01,West,270,8.2,8.2,81,0.02,,,0.02,WUHU216HW,2013-12-05 20:18:00,
2013-12-05 15:23:00,34.3,29.0,29.97,NNE,23,1.3,8.2,81,0.04,,,0.04,WUHU216HW,2013-12-05 20:23:00,
2013-12-05 15:28:00,34.3,29.3,29.99,NW,315,3.3,6.9,82,0.04,,,0.04,WUHU216HW,2013-12-05 20:28:00,
2013-12-05 15:33:00,34.3,29.3,29.99,NNW,338,0.0,5.3,82,0.04,,,0.04,WUHU216HW,2013-12-05 20:33:00,
2013-12-05 15:38:00,34.3,29.6,30.00,WNW,293,0.0,5.3,83,0.04,,,0.04,WUHU216HW,2013-12-05 20:38:00,
2013-12-05 15:43:00,34.3,29.6,30.00,North,0,4.6,4.6,83,0.06,,,0.06,WUHU216HW,2013-12-05 20:43:00,
2013-12-05 15:48:00,34.1,29.4,30.01,West,270,0.0,6.9,83,0.08,,,0.06,WUHU216HW,2013-12-05 20:48:00,
2013-12-05 15:53:00,33.9,29.2,30.02,WNW,293,0.0,6.9,83,0.08,,,0.08,WUHU216HW,2013-12-05 20:53:00,
2013-12-05 15:58:00,33.9,29.2,30.02,West,270,6.4,6.4,83,0.08,,,0.08,WUHU216HW,2013-12-05 20:58:00,
2013-12-05 16:03:00,33.9,29.2,30.03,NW,315,1.3,6.4,83,0.06,,,0.08,WUHU216HW,2013-12-05 21:03:00,
2013-12-05 16:08:00,33.8,29.3,30.03,West,270,0.0,1.3,84,0.06,,,0.08,WUHU216HW,2013-12-05 21:08:00,
2013-12-05 16:13:00,33.6,29.2,30.04,WNW,293,4.6,4.6,84,0.06,,,0.08,WUHU216HW,2013-12-05 21:13:00,
2013-12-05 16:18:00,33.4,29.0,30.03,NW,315,6.0,10.2,84,0.08,,,0.10,WUHU216HW,2013-12-05 21:18:00,
2013-12-05 16:23:00,33.4,29.0,30.04,West,270,0.8,10.2,84,0.06,,,0.10,WUHU216HW,2013-12-05 21:23:00,
2013-12-05 16:28:00,33.4,29.0,30.04,WSW,248,0.0,6.0,84,0.06,,,0.10,WUHU216HW,2013-12-05 21:28:00,
2013-12-05 16:33:00,33.4,29.0,30.03,WNW,293,5.1,5.1,84,0.08,,,0.12,WUHU216HW,2013-12-05 21:33:00,
2013-12-05 16:38:00,33.4,29.0,30.03,WNW,293,0.0,6.4,84,0.08,,,0.12,WUHU216HW,2013-12-05 21:38:00,
2013-12-05 16:43:00,33.4,29.3,30.03,WNW,293,0.0,6.4,85,0.06,,,0.12,WUHU216HW,2013-12-05 21:43:00,
2013-12-05 16:48:00,33.4,29.3,30.03,WNW,293,7.6,7.6,85,0.06,,,0.12,WUHU216HW,2013-12-05 21:48:00,
2013-12-05 16:53:00,33.4,29.3,30.01,WNW,293,6.0,8.0,85,0.06,,,0.14,WUHU216HW,2013-12-05 21:53:00,
2013-12-05 16:58:00,33.2,29.1,30.03,WNW,293,4.0,8.0,85,0.06,,,0.14,WUHU216HW,2013-12-05 21:58:00,
2013-12-05 17:03:00,33.0,29.0,30.03,WNW,293,2.4,5.5,85,0.06,,,0.14,WUHU216HW,2013-12-05 22:03:00,
2013-12-05 17:08:00,33.0,29.0,30.03,WNW,293,5.3,5.5,85,0.08,,,0.16,WUHU216HW,2013-12-05 22:08:00,
2013-12-05 17:13:00,33.0,29.0,30.02,WNW,293,0.0,5.3,85,0.06,,,0.16,WUHU216HW,2013-12-05 22:13:00,
2013-12-05 17:18:00,33.0,29.0,30.01,WNW,293,0.0,5.3,85,0.06,,,0.16,WUHU216HW,2013-12-05 22:18:00,
2013-12-05 17:23:00,33.0,29.0,30.02,WNW,293,0.0,1.3,85,0.08,,,0.18,WUHU216HW,2013-12-05 22:23:00,
2013-12-05 17:28:00,33.0,29.0,30.02,WNW,293,0.0,0.0,85,0.06,,,0.18,WUHU216HW,2013-12-05 22:28:00,
2013-12-05 17:33:00,33.0,29.3,30.00,WNW,293,0.0,0.0,86,0.06,,,0.18,WUHU216HW,2013-12-05 22:33:00,
2013-12-05 17:38:00,33.0,29.3,30.01,WNW,293,0.0,0.0,86,0.06,,,0.18,WUHU216HW,2013-12-05 22:38:00,
2013-12-05 17:44:00,33.2,29.4,30.01,WNW,293,0.0,0.0,86,0.06,,,0.18,WUHU216HW,2013-12-05 22:44:00,
2013-12-05 17:49:00,33.4,29.6,30.00,WNW,293,0.0,0.0,86,0.04,,,0.18,WUHU216HW,2013-12-05 22:49:00,
2013-12-05 17:54:00,33.4,29.6,29.98,WNW,293,0.0,0.0,86,0.04,,,0.18,WUHU216HW,2013-12-05 22:54:00,
2013-12-05 17:59:00,33.4,29.6,29.99,WNW,293,0.0,0.0,86,0.04,,,0.18,WUHU216HW,2013-12-05 22:59:00,
2013-12-05 18:04:00,33.2,29.4,29.99,WNW,293,0.0,0.0,86,0.02,,,0.18,WUHU216HW,2013-12-05 23:04:00,
2013-12-05 18:09:00,33.2,29.4,29.99,WNW,293,0.0,2.4,86,0.02,,,0.18,WUHU216HW,2013-12-05 23:09:00,
2013-12-05 18:14:00,33.0,29.3,30.00,WNW,293,0.0,5.5,86,0.02,,,0.18,WUHU216HW,2013-12-05 23:14:00,
2013-12-05 18:19:00,33.0,29.3,30.00,WNW,293,0.0,5.5,86,0.02,,,0.18,WUHU216HW,2013-12-05 23:19:00,
2013-12-05 18:24:00,33.0,29.3,30.00,WNW,293,0.0,0.0,86,0.00,,,0.18,WUHU216HW,2013-12-05 23:24:00,
2013-12-05 18:29:00,32.9,29.1,30.03,WNW,293,6.9,6.9,86,0.00,,,0.18,WUHU216HW,2013-12-05 23:29:00,
2013-12-05 18:34:00,32.7,28.9,30.03,WNW,293,0.0,6.9,86,0.00,,,0.18,WUHU216HW,2013-12-05 23:34:00,
2013-12-05 18:39:00,32.7,28.9,30.02,WNW,293,0.0,6.9,86,0.00,,,0.18,WUHU216HW,2013-12-05 23:39:00,
2013-12-05 18:44:00,32.5,28.8,30.03,WNW,293,0.0,6.7,86,0.00,,,0.18,WUHU216HW,2013-12-05 23:44:00,
2013-12-05 18:49:00,32.5,28.8,30.03,WNW,293,0.0,2.9,86,0.00,,,0.18,WUHU216HW,2013-12-05 23:49:00,
2013-12-05 18:54:00,32.5,28.8,30.04,WNW,293,5.8,5.8,86,0.00,,,0.18,WUHU216HW,2013-12-05 23:54:00,
2013-12-05 18:59:00,32.3,28.6,30.03,WNW,293,0.0,5.8,86,0.00,,,0.18,WUHU216HW,2013-12-05 23:59:00,
2013-12-05 19:04:00,32.3,28.6,30.04,WNW,293,0.0,3.5,86,0.00,,,0.18,WUHU216HW,2013-12-06 00:04:00,
2013-12-05 19:09:00,32.3,28.6,30.04,WNW,293,3.5,3.5,86,0.00,,,0.18,WUHU216HW,2013-12-06 00:09:00,
2013-12-05 19:14:00,32.1,28.4,30.06,WNW,293,5.5,5.5,86,0.00,,,0.18,WUHU216HW,2013-12-06 00:14:00,
2013-12-05 19:19:00,32.1,28.4,30.06,WNW,293,8.5,8.5,86,0.00,,,0.18,WUHU216HW,2013-12-06 00:19:00,
2013-12-05 19:24:00,31.8,28.1,30.06,WNW,293,2.4,8.5,86,0.00,,,0.18,WUHU216HW,2013-12-06 00:24:00,
2013-12-05 19:29:00,31.8,28.1,30.06,WNW,293,5.3,8.5,86,0.00,,,0.18,WUHU216HW,2013-12-06 00:29:00,
2013-12-05 19:34:00,31.8,28.1,30.07,WNW,293,0.0,6.9,86,0.00,,,0.18,WUHU216HW,2013-12-06 00:34:00,
2013-12-05 19:39:00,31.8,28.1,30.08,WNW,293,0.0,6.9,86,0.00,,,0.18,WUHU216HW,2013-12-06 00:39:00,
2013-12-05 19:44:00,31.8,28.1,30.08,WNW,293,8.5,8.5,86,0.00,,,0.18,WUHU216HW,2013-12-06 00:44:00,
2013-12-05 19:49:00,31.6,27.9,30.08,WNW,293,5.5,8.5,86,0.00,,,0.18,WUHU216HW,2013-12-06 00:49:00,
2013-12-05 19:54:00,31.6,27.9,30.08,WNW,293,5.5,5.5,86,0.00,,,0.18,WUHU216HW,2013-12-06 00:54:00,
2013-12-05 19:59:00,31.6,27.9,30.08,WNW,293,6.2,6.2,86,0.00,,,0.18,WUHU216HW,2013-12-06 00:59:00,
2013-12-05 20:04:00,31.6,27.9,30.08,WNW,293,5.5,6.2,86,0.00,,,0.18,WUHU216HW,2013-12-06 01:04:00,
2013-12-05 20:09:00,31.6,27.9,30.10,WNW,293,0.0,6.2,86,0.00,,,0.18,WUHU216HW,2013-12-06 01:09:00,
2013-12-05 20:14:00,31.6,27.9,30.10,WNW,293,4.6,5.5,86,0.00,,,0.18,WUHU216HW,2013-12-06 01:14:00,
2013-12-05 20:19:00,31.6,27.9,30.09,WNW,293,8.0,8.0,86,0.00,,,0.18,WUHU216HW,2013-12-06 01:19:00,
2013-12-05 20:24:00,31.4,27.7,30.10,WNW,293,5.8,8.0,86,0.00,,,0.18,WUHU216HW,2013-12-06 01:24:00,
2013-12-05 20:29:00,31.2,27.6,30.10,WNW,293,0.0,8.0,86,0.00,,,0.18,WUHU216HW,2013-12-06 01:29:00,
2013-12-05 20:34:00,31.2,27.6,30.09,WNW,293,0.0,5.5,86,0.00,,,0.18,WUHU216HW,2013-12-06 01:34:00,
2013-12-05 20:39:00,31.2,27.6,30.08,WNW,293,0.0,4.0,86,0.00,,,0.18,WUHU216HW,2013-12-06 01:39:00,
2013-12-05 20:44:00,31.2,27.6,30.08,WNW,293,0.0,0.0,86,0.00,,,0.18,WUHU216HW,2013-12-06 01:44:00,
2013-12-05 20:49:00,31.2,27.6,30.08,WNW,293,0.0,0.0,86,0.00,,,0.18,WUHU216HW,2013-12-06 01:49:00,
2013-12-05 20:54:00,31.2,27.6,30.07,WNW,293,0.0,0.0,86,0.00,,,0.18,WUHU216HW,2013-12-06 01:54:00,
2013-12-05 20:59:00,31.2,27.6,30.07,WNW,293,0.0,4.2,86,0.00,,,0.18,WUHU216HW,2013-12-06 01:59:00,
2013-12-05 21:04:00,31.2,27.6,30.06,WNW,293,0.0,4.2,86,0.00,,,0.18,WUHU216HW,2013-12-06 02:04:00,
2013-12-05 21:09:00,31.1,27.4,30.07,WNW,293,0.0,5.5,86,0.00,,,0.18,WUHU216HW,2013-12-06 02:09:00,
2013-12-05 21:14:00,31.1,27.4,30.08,WNW,293,0.0,5.5,86,0.00,,,0.18,WUHU216HW,2013-12-06 02:14:00,
2013-12-05 21:19:00,31.1,27.4,30.08,WNW,293,0.0,0.0,86,0.00,,,0.18,WUHU216HW,2013-12-06 02:19:00,
2013-12-05 21:24:00,31.1,27.4,30.08,WNW,293,0.0,0.0,86,0.00,,,0.18,WUHU216HW,2013-12-06 02:24:00,
2013-12-05 21:29:00,31.1,27.4,30.09,WNW,293,0.0,0.0,86,0.00,,,0.18,WUHU216HW,2013-12-06 02:29:00,
2013-12-05 21:34:00,31.1,27.4,30.09,WNW,293,0.0,0.0,86,0.00,,,0.18,WUHU216HW,2013-12-06 02:34:00,
2013-12-05 21:39:00,31.1,27.4,30.10,WNW,293,5.5,5.5,86,0.00,,,0.18,WUHU216HW,2013-12-06 02:39:00,
2013-12-05 21:44:00,30.9,27.2,30.10,WNW,293,0.0,5.5,86,0.00,,,0.18,WUHU216HW,2013-12-06 02:44:00,
2013-12-05 21:49:00,30.9,27.2,30.10,WNW,293,0.0,0.0,86,0.00,,,0.18,WUHU216HW,2013-12-06 02:49:00,
2013-12-05 21:54:00,30.9,27.2,30.09,WNW,293,0.0,0.0,86,0.00,,,0.18,WUHU216HW,2013-12-06 02:54:00,
2013-12-05 21:59:00,30.9,27.2,30.08,WNW,293,0.0,0.0,86,0.00,,,0.18,WUHU216HW,2013-12-06 02:59:00,
2013-12-05 22:04:00,31.1,27.4,30.09,WNW,293,0.0,0.0,86,0.00,,,0.18,WUHU216HW,2013-12-06 03:04:00,
2013-12-05 22:09:00,31.1,27.4,30.09,WNW,293,0.0,0.0,86,0.00,,,0.18,WUHU216HW,2013-12-06 03:09:00,
2013-12-05 22:14:00,31.1,27.4,30.08,WNW,293,0.0,0.0,86,0.00,,,0.18,WUHU216HW,2013-12-06 03:14:00,
2013-12-05 22:19:00,31.1,27.4,30.07,WNW,293,0.0,0.0,86,0.00,,,0.18,WUHU216HW,2013-12-06 03:19:00,
2013-12-05 22:24:00,30.9,27.2,30.08,WNW,293,0.0,0.0,86,0.00,,,0.18,WUHU216HW,2013-12-06 03:24:00,
2013-12-05 22:29:00,30.9,27.2,30.08,WNW,293,0.0,0.0,86,0.00,,,0.18,WUHU216HW,2013-12-06 03:29:00,
2013-12-05 22:34:00,30.9,27.2,30.10,WNW,293,0.0,0.0,86,0.00,,,0.18,WUHU216HW,2013-12-06 03:34:00,
2013-12-05 22:39:00,30.7,27.0,30.09,WNW,293,0.0,0.0,86,0.00,,,0.18,WUHU216HW,2013-12-06 03:39:00,
2013-12-05 22:44:00,30.7,27.0,30.10,WNW,293,0.0,0.0,86,0.00,,,0.18,WUHU216HW,2013-12-06 03:44:00,
2013-12-05 22:49:00,30.7,27.0,30.10,WNW,293,6.0,6.0,86,0.00,,,0.18,WUHU216HW,2013-12-06 03:49:00,
2013-12-05 22:54:00,30.7,27.0,30.11,WNW,293,0.0,6.0,86,0.00,,,0.18,WUHU216HW,2013-12-06 03:54:00,
2013-12-05 22:59:00,30.5,26.8,30.11,WNW,293,0.0,6.0,86,0.00,,,0.18,WUHU216HW,2013-12-06 03:59:00,
2013-12-05 23:04:00,30.5,26.8,30.11,WNW,293,0.0,3.3,86,0.00,,,0.18,WUHU216HW,2013-12-06 04:04:00,
2013-12-05 23:09:00,30.3,26.7,30.11,WNW,293,0.0,0.0,86,0.00,,,0.18,WUHU216HW,2013-12-06 04:09:00,
2013-12-05 23:14:00,30.3,26.7,30.11,WNW,293,5.8,5.8,86,0.00,,,0.18,WUHU216HW,2013-12-06 04:14:00,
2013-12-05 23:19:00,30.2,26.5,30.09,WNW,293,0.0,5.8,86,0.00,,,0.18,WUHU216HW,2013-12-06 04:19:00,
2013-12-05 23:24:00,30.2,26.5,30.08,WNW,293,0.0,0.0,86,0.00,,,0.18,WUHU216HW,2013-12-06 04:24:00,
2013-12-05 23:29:00,30.0,26.3,30.10,WNW,293,0.0,0.0,86,0.00,,,0.18,WUHU216HW,2013-12-06 04:29:00,
2013-12-05 23:34:00,30.0,26.3,30.09,WNW,293,0.0,0.0,86,0.00,,,0.18,WUHU216HW,2013-12-06 04:34:00,
2013-12-05 23:39:00,30.0,26.3,30.10,WNW,293,0.0,0.0,86,0.00,,,0.18,WUHU216HW,2013-12-06 04:39:00,
2013-12-05 23:44:00,30.0,26.3,30.10,WNW,293,0.0,0.0,86,0.00,,,0.18,WUHU216HW,2013-12-06 04:44:00,
2013-12-05 23:49:00,29.8,26.4,30.11,WNW,293,5.5,5.5,87,0.00,,,0.18,WUHU216HW,2013-12-06 04:49:00,
2013-12-05 23:54:00,29.8,26.1,30.12,WNW,293,0.0,5.5,86,0.00,,,0.18,WUHU216HW,2013-12-06 04:54:00,
2013-12-05 23:59:00,29.6,26.2,30.12,WNW,293,6.0,6.0,87,0.00,,,0.18,WUHU216HW,2013-12-06 04:59:00,